Time;durP1;ratioP1;P1;durP2;ratioP2;P2;SDS_P1;SDS_P2;PMS_P1;PMS_P2;Temp;Humidity;BMP_temperature;BMP_pressure;BME280_temperature;BME280_humidity;BME280_pressure;Samples;Min_cycle;Max_cycle;Signal;HPM_P1;HPM_P2
2022/01/20 00:00:16;;;;;;;29.98;14.32;;;23.50;62.50;;;;;;4154501;28;20366;-52
2022/01/20 00:02:39;;;;;;;22.15;14.05;;;23.50;62.60;;;;;;4135920;28;20809;-50
2022/01/20 00:08:33;;;;;;;30.33;15.27;;;23.50;62.60;;;;;;4152359;28;20495;-54
2022/01/20 00:26:52;;;;;;;21.63;13.32;;;23.60;63.00;;;;;;4149351;28;20087;-59
2022/01/20 00:29:22;;;;;;;16.00;10.85;;;23.60;63.00;;;;;;4152348;28;20043;-59
2022/01/20 00:32:02;;;;;;;22.25;12.90;;;23.60;63.00;;;;;;4156067;28;20656;-55
2022/01/20 00:34:36;;;;;;;19.27;11.68;;;23.70;63.10;;;;;;4153758;28;20083;-57
2022/01/20 00:37:16;;;;;;;19.52;11.18;;;23.70;63.10;;;;;;4149684;28;20125;-57
2022/01/20 00:39:38;;;;;;;24.88;11.13;;;23.70;63.20;;;;;;4153855;28;20046;-51
2022/01/20 00:42:01;;;;;;;17.95;10.57;;;23.70;63.40;;;;;;4152875;28;20091;-53
2022/01/20 00:44:25;;;;;;;17.77;10.90;;;23.70;63.40;;;;;;4153739;28;20041;-50
2022/01/20 00:46:48;;;;;;;21.55;11.48;;;23.70;63.30;;;;;;4156237;28;20038;-54
2022/01/20 00:49:11;;;;;;;18.33;10.20;;;23.80;63.30;;;;;;4159868;28;20032;-52
2022/01/20 00:51:33;;;;;;;18.38;10.85;;;23.80;63.20;;;;;;4158767;28;20059;-53
2022/01/20 00:53:56;;;;;;;16.67;9.73;;;23.80;63.40;;;;;;4157119;28;20049;-47
2022/01/20 00:56:19;;;;;;;18.25;9.80;;;23.80;63.40;;;;;;4136691;28;20089;-52
2022/01/20 00:58:42;;;;;;;14.60;9.07;;;23.90;63.40;;;;;;4153204;28;20089;-49
2022/01/20 01:01:05;;;;;;;17.33;8.60;;;23.80;63.40;;;;;;4158665;28;20059;-55
2022/01/20 01:03:28;;;;;;;18.63;9.40;;;23.80;63.30;;;;;;4154795;28;20132;-49
2022/01/20 01:06:19;;;;;;;13.25;8.65;;;23.90;63.50;;;;;;4155854;28;20274;-55
2022/01/20 01:08:42;;;;;;;14.00;7.20;;;23.90;63.40;;;;;;4150693;28;20033;-58
2022/01/20 01:11:05;;;;;;;10.77;6.53;;;23.90;63.40;;;;;;4163810;28;20135;-56
2022/01/20 01:13:29;;;;;;;13.10;6.90;;;23.90;63.40;;;;;;4163927;28;20063;-58
2022/01/20 01:15:52;;;;;;;16.00;6.80;;;23.90;63.50;;;;;;4163542;28;20041;-48
2022/01/20 01:23:22;;;;;;;10.73;5.20;;;23.90;63.80;;;;;;4169357;28;20037;-57
2022/01/20 01:25:45;;;;;;;12.95;5.60;;;24.00;63.90;;;;;;4168721;28;20052;-52
2022/01/20 01:28:08;;;;;;;8.82;5.28;;;24.00;63.90;;;;;;4162458;28;20155;-55
2022/01/20 01:31:07;;;;;;;7.30;4.82;;;24.00;63.80;;;;;;4162234;28;20060;-56
2022/01/20 01:33:18;;;;;;;7.78;4.03;;;24.00;63.80;;;;;;4160792;28;20037;-57
2022/01/20 01:35:42;;;;;;;;;;;24.00;63.70;;;;;;4155914;28;20602;-50
2022/01/20 01:40:29;;;;;;;9.20;3.53;;;24.10;63.80;;;;;;4155496;28;20494;-48
2022/01/20 01:42:53;;;;;;;9.80;3.40;;;24.10;63.80;;;;;;4156421;28;20445;-49
2022/01/20 01:45:37;;;;;;;5.65;3.50;;;24.20;63.70;;;;;;4159167;28;20034;-53
2022/01/20 01:48:01;;;;;;;8.50;3.92;;;24.20;63.60;;;;;;4153453;28;20630;-54
2022/01/20 01:50:25;;;;;;;8.30;3.45;;;24.20;63.50;;;;;;4155105;28;20055;-51
2022/01/20 01:52:49;;;;;;;10.88;3.25;;;24.20;63.50;;;;;;4155050;28;20883;-52
2022/01/20 01:55:12;;;;;;;5.40;3.13;;;24.30;63.50;;;;;;4154392;28;20051;-56
2022/01/20 01:57:35;;;;;;;8.60;3.10;;;24.30;63.40;;;;;;4154652;28;20045;-51
2022/01/20 01:59:57;;;;;;;7.13;3.20;;;24.40;63.40;;;;;;4160866;28;20838;-53
2022/01/20 02:02:20;;;;;;;8.80;3.22;;;24.40;63.30;;;;;;4158152;28;20061;-56
2022/01/20 02:04:43;;;;;;;8.02;2.83;;;24.40;63.50;;;;;;4153725;28;20033;-57
2022/01/20 02:17:46;;;;;;;5.85;2.45;;;24.60;63.40;;;;;;4153442;28;20073;-58
2022/01/20 02:20:15;;;;;;;6.10;2.28;;;24.70;62.70;;;;;;4156095;28;20041;-59
2022/01/20 02:22:37;;;;;;;5.97;2.00;;;24.70;62.70;;;;;;4155764;28;20056;-57
2022/01/20 02:24:59;;;;;;;8.13;2.10;;;24.80;62.60;;;;;;4155812;28;20037;-59
2022/01/20 02:27:22;;;;;;;5.15;2.15;;;24.80;62.60;;;;;;4153722;28;20049;-57
2022/01/20 02:29:46;;;;;;;5.60;2.10;;;24.80;62.50;;;;;;4156397;28;20034;-59
2022/01/20 02:32:09;;;;;;;6.15;1.65;;;24.80;62.60;;;;;;4159648;28;20782;-59
2022/01/20 02:34:32;;;;;;;4.50;1.70;;;24.80;62.50;;;;;;4157152;28;20044;-58
2022/01/20 02:36:56;;;;;;;2.78;1.63;;;24.90;62.50;;;;;;4157553;28;20470;-52
2022/01/20 02:47:13;;;;;;;6.82;1.50;;;25.00;62.20;;;;;;4156090;28;20084;-52
2022/01/20 02:49:35;;;;;;;4.80;1.60;;;25.10;62.20;;;;;;4158807;28;20037;-51
2022/01/20 02:51:58;;;;;;;4.55;1.40;;;25.10;62.00;;;;;;4153801;28;20676;-49
2022/01/20 02:54:22;;;;;;;3.05;1.33;;;25.10;62.00;;;;;;4155329;28;20045;-54
2022/01/20 02:56:45;;;;;;;5.13;1.27;;;25.20;62.10;;;;;;4153199;28;20041;-55
2022/01/20 02:59:08;;;;;;;2.47;1.25;;;25.20;61.90;;;;;;4155205;28;20873;-54
2022/01/20 03:01:32;;;;;;;1.75;1.02;;;25.20;61.90;;;;;;4151401;28;20045;-53
2022/01/20 03:03:55;;;;;;;4.93;1.52;;;25.20;61.80;;;;;;4152133;28;20038;-54
2022/01/20 03:06:18;;;;;;;4.40;1.23;;;25.20;61.80;;;;;;4147748;28;20045;-58
2022/01/20 03:08:40;;;;;;;3.55;1.08;;;25.30;61.90;;;;;;4156275;28;20183;-59
2022/01/20 03:11:03;;;;;;;3.17;1.48;;;25.30;62.00;;;;;;4158982;28;20040;-59
2022/01/20 03:13:26;;;;;;;2.85;1.35;;;25.30;61.90;;;;;;4154313;28;20068;-58
2022/01/20 03:15:49;;;;;;;3.88;1.30;;;25.40;62.00;;;;;;4157001;28;20215;-58
2022/01/20 03:18:12;;;;;;;4.03;1.60;;;25.40;61.80;;;;;;4156321;28;20041;-60
2022/01/20 03:20:35;;;;;;;3.97;1.30;;;25.40;61.70;;;;;;4156460;28;20859;-57
2022/01/20 03:22:57;;;;;;;2.92;1.30;;;25.40;61.80;;;;;;4157047;28;20676;-55
2022/01/20 03:25:20;;;;;;;6.05;2.10;;;25.40;61.70;;;;;;4162245;28;20071;-57
2022/01/20 03:27:43;;;;;;;5.50;1.60;;;25.40;62.30;;;;;;4152774;28;20053;-58
2022/01/20 03:30:08;;;;;;;5.05;1.40;;;25.50;62.00;;;;;;4155705;28;20033;-59
2022/01/20 03:32:30;;;;;;;8.57;1.40;;;25.50;61.80;;;;;;4156143;28;20879;-58
2022/01/20 03:34:53;;;;;;;3.85;1.35;;;25.60;61.70;;;;;;4155631;28;20103;-51
2022/01/20 03:37:16;;;;;;;3.70;1.30;;;25.60;61.70;;;;;;4153950;28;20080;-54
2022/01/20 03:39:39;;;;;;;3.10;1.35;;;25.60;61.50;;;;;;4158800;28;20065;-58
2022/01/20 03:42:02;;;;;;;3.15;1.30;;;25.70;61.60;;;;;;4161010;28;20095;-59
2022/01/20 03:44:24;;;;;;;3.80;1.00;;;25.70;61.40;;;;;;4154613;28;20059;-58
2022/01/20 03:46:47;;;;;;;2.25;1.13;;;25.70;61.40;;;;;;4157872;28;20084;-51
2022/01/20 03:49:25;;;;;;;3.40;1.05;;;25.70;61.40;;;;;;4156767;28;20059;-57
2022/01/20 03:51:47;;;;;;;5.43;1.50;;;25.70;61.50;;;;;;4150826;28;20451;-57
2022/01/20 03:54:10;;;;;;;5.28;1.25;;;25.80;61.50;;;;;;4155345;28;20735;-55
2022/01/20 03:56:33;;;;;;;4.95;1.15;;;25.80;61.40;;;;;;4160182;28;20029;-56
2022/01/20 03:58:55;;;;;;;2.50;0.77;;;25.80;61.70;;;;;;4151594;28;20842;-57
2022/01/20 04:01:19;;;;;;;2.50;1.00;;;25.90;61.70;;;;;;4157247;28;20359;-59
2022/01/20 04:03:42;;;;;;;4.47;1.00;;;25.90;61.50;;;;;;4159776;28;20120;-55
2022/01/20 04:06:05;;;;;;;4.32;1.20;;;25.90;61.30;;;;;;4153228;28;20092;-57
2022/01/20 04:08:36;;;;;;;5.45;1.20;;;26.00;61.50;;;;;;4153463;28;20045;-57
2022/01/20 04:11:07;;;;;;;3.65;0.88;;;25.90;61.40;;;;;;4160626;28;20040;-56
2022/01/20 04:13:31;;;;;;;1.77;1.00;;;26.00;61.40;;;;;;4154950;28;20592;-52
2022/01/20 04:15:54;;;;;;;1.60;0.98;;;26.00;61.40;;;;;;4156871;28;20043;-55
2022/01/20 04:18:23;;;;;;;2.05;0.82;;;26.00;61.40;;;;;;4159231;28;20866;-55
2022/01/20 04:20:46;;;;;;;3.15;1.40;;;26.00;61.40;;;;;;4161025;28;20112;-58
2022/01/20 04:23:09;;;;;;;6.65;1.10;;;26.00;61.50;;;;;;4152216;28;20076;-58
2022/01/20 04:25:32;;;;;;;4.15;1.00;;;26.10;61.30;;;;;;4151912;28;20038;-55
2022/01/20 04:27:55;;;;;;;5.45;1.73;;;26.10;61.30;;;;;;4157330;28;20049;-59
2022/01/20 04:30:18;;;;;;;4.60;1.42;;;26.10;59.30;;;;;;4153356;28;20036;-57
2022/01/20 04:32:44;;;;;;;5.70;1.80;;;26.20;59.50;;;;;;4160105;28;20049;-57
2022/01/20 04:35:07;;;;;;;4.80;1.95;;;26.10;58.60;;;;;;4167702;28;21216;-59
2022/01/20 04:37:30;;;;;;;9.23;2.33;;;26.10;57.90;;;;;;4162248;28;20099;-57
2022/01/20 04:39:52;;;;;;;4.75;1.77;;;26.10;58.30;;;;;;4163274;28;20927;-57
2022/01/20 04:42:17;;;;;;;5.80;1.90;;;26.10;58.20;;;;;;4152694;28;20044;-57
2022/01/20 04:45:03;;;;;;;4.85;1.67;;;26.10;58.30;;;;;;4151538;28;20036;-58
2022/01/20 04:47:37;;;;;;;6.60;1.90;;;26.10;57.80;;;;;;4152023;28;20711;-59
2022/01/20 04:58:01;;;;;;;5.18;1.80;;;26.10;55.80;;;;;;4153222;28;20037;-60
2022/01/20 05:00:24;;;;;;;5.10;1.63;;;26.10;56.50;;;;;;4153269;28;20073;-60
2022/01/20 05:02:46;;;;;;;5.10;2.05;;;26.10;56.90;;;;;;4153207;28;20812;-60
2022/01/20 05:05:10;;;;;;;8.20;2.60;;;26.10;57.10;;;;;;4156975;28;20082;-58
2022/01/20 05:07:32;;;;;;;5.57;1.88;;;26.10;56.90;;;;;;4158776;28;20097;-59
2022/01/20 05:09:57;;;;;;;4.83;1.53;;;26.00;57.10;;;;;;4159192;28;20072;-60
2022/01/20 05:12:26;;;;;;;5.93;2.00;;;26.00;57.40;;;;;;4159996;28;20037;-60
2022/01/20 05:14:49;;;;;;;7.03;2.00;;;26.00;57.30;;;;;;4155793;28;20442;-56
2022/01/20 05:17:11;;;;;;;5.65;1.55;;;26.00;57.30;;;;;;4157768;28;20123;-58
2022/01/20 05:19:34;;;;;;;6.78;1.85;;;26.00;57.10;;;;;;4159813;28;20044;-59
2022/01/20 05:21:57;;;;;;;7.35;2.00;;;26.00;57.00;;;;;;4159954;28;20123;-58
2022/01/20 05:24:23;;;;;;;4.60;1.77;;;26.10;57.00;;;;;;4162426;28;20048;-58
2022/01/20 05:26:46;;;;;;;4.25;1.60;;;26.10;56.90;;;;;;4164168;28;20045;-49
2022/01/20 05:29:09;;;;;;;5.05;1.65;;;26.10;56.90;;;;;;4150587;28;20144;-54
2022/01/20 05:31:32;;;;;;;4.60;1.90;;;26.10;56.80;;;;;;4152854;28;20053;-56
2022/01/20 05:33:55;;;;;;;6.10;1.85;;;26.20;57.10;;;;;;4162099;28;20132;-57
2022/01/20 05:36:17;;;;;;;6.97;2.20;;;26.20;56.50;;;;;;4152090;28;20033;-59
2022/01/20 05:38:40;;;;;;;5.10;1.50;;;26.30;57.10;;;;;;4160997;28;20814;-59
2022/01/20 05:41:03;;;;;;;5.40;1.65;;;26.30;57.20;;;;;;4163618;28;20060;-60
2022/01/20 05:43:26;;;;;;;5.40;1.87;;;26.40;57.10;;;;;;4153311;28;20480;-61
2022/01/20 05:45:49;;;;;;;5.23;1.73;;;26.40;57.20;;;;;;4153224;28;20581;-60
2022/01/20 05:48:17;;;;;;;5.22;1.83;;;26.40;56.90;;;;;;4153943;28;20275;-61
2022/01/20 05:50:40;;;;;;;6.10;2.10;;;26.40;57.00;;;;;;4156510;28;20171;-60
2022/01/20 05:53:04;;;;;;;5.33;1.97;;;26.40;56.90;;;;;;4159716;28;20067;-60
2022/01/20 05:55:27;;;;;;;5.53;1.77;;;26.40;57.50;;;;;;4156686;28;20175;-58
2022/01/20 05:57:50;;;;;;;8.30;2.20;;;26.50;56.90;;;;;;4153951;28;20045;-58
2022/01/20 06:00:16;;;;;;;15.30;2.20;;;26.50;56.70;;;;;;4155448;28;20052;-58
2022/01/20 06:05:19;;;;;;;5.93;2.53;;;26.50;56.80;;;;;;4160442;28;20094;-57
2022/01/20 06:07:42;;;;;;;21.08;2.63;;;26.50;56.70;;;;;;4156524;28;20068;-59
2022/01/20 06:10:05;;;;;;;6.60;2.30;;;26.60;56.50;;;;;;4160986;28;20037;-57
2022/01/20 06:12:27;;;;;;;9.05;2.72;;;26.50;56.30;;;;;;4158366;28;20071;-50
2022/01/20 06:14:50;;;;;;;9.35;2.63;;;26.50;56.40;;;;;;4156153;28;20029;-54
2022/01/20 06:17:13;;;;;;;10.25;2.67;;;26.50;56.40;;;;;;4159078;28;20553;-57
2022/01/20 06:19:35;;;;;;;9.50;2.90;;;26.50;56.40;;;;;;4158602;28;20185;-53
2022/01/20 06:21:58;;;;;;;11.15;2.55;;;26.60;56.30;;;;;;4157667;28;20033;-56
2022/01/20 06:24:21;;;;;;;7.95;2.53;;;26.60;56.30;;;;;;4156910;28;20048;-54
2022/01/20 06:26:43;;;;;;;6.93;2.70;;;26.60;56.30;;;;;;4158908;28;20471;-55
2022/01/20 06:29:06;;;;;;;8.43;2.60;;;26.60;55.90;;;;;;4155652;28;20064;-56
2022/01/20 06:31:29;;;;;;;10.05;2.80;;;26.60;56.20;;;;;;4154529;28;20038;-57
2022/01/20 06:33:51;;;;;;;7.05;2.05;;;26.70;55.90;;;;;;4153853;28;20072;-54
2022/01/20 06:36:14;;;;;;;9.18;2.42;;;26.70;56.00;;;;;;4152025;28;20033;-55
2022/01/20 06:38:37;;;;;;;6.23;2.50;;;26.70;56.10;;;;;;4154791;28;20038;-54
2022/01/20 06:40:59;;;;;;;7.20;2.75;;;26.80;56.20;;;;;;4153742;28;20034;-55
2022/01/20 06:43:22;;;;;;;13.63;2.65;;;26.70;56.10;;;;;;4157298;28;20126;-57
2022/01/20 06:45:45;;;;;;;8.25;2.45;;;26.80;56.00;;;;;;4155688;28;20040;-60
2022/01/20 06:48:07;;;;;;;6.40;2.33;;;26.80;55.90;;;;;;4152861;28;20077;-55
2022/01/20 06:50:30;;;;;;;6.65;2.38;;;26.80;54.90;;;;;;4157076;28;20037;-57
2022/01/20 06:52:54;;;;;;;8.63;2.70;;;26.80;54.70;;;;;;4163127;28;20044;-58
2022/01/20 06:55:16;;;;;;;7.35;2.10;;;26.80;54.90;;;;;;4160427;28;20144;-60
2022/01/20 06:57:40;;;;;;;7.88;2.42;;;26.80;55.00;;;;;;4157635;28;20037;-61
2022/01/20 07:00:06;;;;;;;9.13;2.55;;;26.80;54.70;;;;;;4158844;28;20041;-58
2022/01/20 07:02:29;;;;;;;9.40;2.78;;;26.70;54.20;;;;;;4152979;28;20446;-59
2022/01/20 07:04:51;;;;;;;8.38;2.30;;;26.70;54.20;;;;;;4153742;28;20056;-58
2022/01/20 07:07:14;;;;;;;7.90;2.70;;;26.70;53.90;;;;;;4157584;28;20746;-58
2022/01/20 07:09:39;;;;;;;6.18;2.30;;;26.70;53.70;;;;;;4156297;28;20095;-57
2022/01/20 07:12:02;;;;;;;8.40;2.50;;;26.70;53.10;;;;;;4151279;28;20685;-56
2022/01/20 07:14:24;;;;;;;9.47;2.20;;;26.70;54.10;;;;;;4153433;28;20103;-57
2022/01/20 07:16:48;;;;;;;5.28;2.08;;;26.60;54.50;;;;;;4154977;28;20280;-58
2022/01/20 07:19:10;;;;;;;10.18;2.58;;;26.70;54.70;;;;;;4156530;28;20430;-58
2022/01/20 07:21:33;;;;;;;10.00;2.25;;;26.70;54.80;;;;;;4155352;28;20033;-54
2022/01/20 07:23:56;;;;;;;6.55;2.00;;;26.70;55.00;;;;;;4152897;28;20137;-59
2022/01/20 07:26:19;;;;;;;6.53;2.30;;;26.70;54.90;;;;;;4160965;28;20076;-57
2022/01/20 07:28:42;;;;;;;6.60;2.10;;;26.70;54.80;;;;;;4163261;28;20299;-57
2022/01/20 07:31:04;;;;;;;6.88;1.85;;;26.70;55.20;;;;;;4159244;28;20037;-59
2022/01/20 07:33:27;;;;;;;5.68;2.10;;;26.80;55.30;;;;;;4160158;28;20048;-58
2022/01/20 07:35:50;;;;;;;7.18;2.13;;;26.80;56.20;;;;;;4156292;28;20029;-59
2022/01/20 07:38:13;;;;;;;6.40;2.23;;;26.80;55.50;;;;;;4154529;28;20032;-58
2022/01/20 07:40:36;;;;;;;8.85;2.17;;;26.70;55.30;;;;;;4163252;28;20382;-57
2022/01/20 07:42:59;;;;;;;6.07;2.00;;;26.80;55.20;;;;;;4169625;28;20051;-59
2022/01/20 07:45:22;;;;;;;7.20;1.88;;;26.70;55.10;;;;;;4168875;28;20039;-58
2022/01/20 07:47:46;;;;;;;10.13;2.63;;;26.70;55.10;;;;;;4161742;28;20041;-59
2022/01/20 07:50:09;;;;;;;8.55;2.10;;;26.70;55.00;;;;;;4161492;28;20050;-60
2022/01/20 07:52:32;;;;;;;6.53;1.60;;;26.70;55.00;;;;;;4163365;28;20072;-60
2022/01/20 07:54:54;;;;;;;6.30;1.75;;;26.70;54.90;;;;;;4164833;28;20041;-57
2022/01/20 07:57:18;;;;;;;5.95;2.47;;;26.60;54.90;;;;;;4155750;28;20049;-58
2022/01/20 07:59:40;;;;;;;;;;;26.60;54.90;;;;;;4161451;28;20061;-62
2022/01/20 08:02:03;;;;;;;7.35;1.88;;;26.60;55.40;;;;;;4160226;28;19916;-60
2022/01/20 08:04:26;;;;;;;6.45;2.00;;;26.60;55.20;;;;;;4161531;28;20073;-60
2022/01/20 08:06:49;;;;;;;8.82;2.15;;;26.60;55.20;;;;;;4160253;28;20037;-60
2022/01/20 08:09:11;;;;;;;7.15;1.75;;;26.60;55.40;;;;;;4162890;28;20172;-61
2022/01/20 08:11:34;;;;;;;7.78;2.15;;;26.60;55.40;;;;;;4161647;28;20062;-60
2022/01/20 08:13:56;;;;;;;6.18;1.88;;;26.60;55.20;;;;;;4142395;28;20117;-58
2022/01/20 08:16:19;;;;;;;6.68;1.83;;;26.60;55.40;;;;;;4157136;28;20033;-61
2022/01/20 08:18:41;;;;;;;7.68;2.08;;;26.60;55.60;;;;;;4156310;28;20056;-61
2022/01/20 08:21:04;;;;;;;4.43;1.80;;;26.60;55.60;;;;;;4155532;28;20048;-62
2022/01/20 08:23:27;;;;;;;8.90;2.20;;;26.50;55.50;;;;;;4153150;28;20124;-61
2022/01/20 08:25:50;;;;;;;4.80;1.92;;;26.60;55.60;;;;;;4153126;28;20040;-59
2022/01/20 08:28:12;;;;;;;6.05;2.33;;;26.50;55.40;;;;;;4154756;28;20116;-59
2022/01/20 08:30:35;;;;;;;15.55;2.25;;;26.50;55.90;;;;;;4153835;28;20041;-60
2022/01/20 08:32:59;;;;;;;6.32;2.05;;;26.50;56.00;;;;;;4159208;28;20661;-58
2022/01/20 08:35:23;;;;;;;7.50;2.20;;;26.50;55.90;;;;;;4155881;28;20037;-60
2022/01/20 08:37:46;;;;;;;6.93;1.92;;;26.50;56.00;;;;;;4156340;28;20505;-58
2022/01/20 08:40:13;;;;;;;5.63;1.95;;;26.50;55.90;;;;;;4154538;28;20065;-60
2022/01/20 08:42:36;;;;;;;6.90;1.70;;;26.50;55.90;;;;;;4155116;28;20048;-59
2022/01/20 08:44:59;;;;;;;6.43;2.00;;;26.50;55.80;;;;;;4137957;28;20100;-59
2022/01/20 08:47:22;;;;;;;4.85;2.03;;;26.50;55.80;;;;;;4151458;28;20449;-58
2022/01/20 08:49:49;;;;;;;5.28;1.77;;;26.50;55.90;;;;;;4150909;28;20090;-56
2022/01/20 08:52:12;;;;;;;6.07;1.92;;;26.50;56.10;;;;;;4135367;28;20047;-59
2022/01/20 08:54:35;;;;;;;7.80;2.17;;;26.50;56.00;;;;;;4153775;28;20069;-60
2022/01/20 08:56:58;;;;;;;5.13;1.90;;;26.40;56.00;;;;;;4155200;28;20562;-59
2022/01/20 08:59:23;;;;;;;8.82;2.20;;;26.40;56.00;;;;;;4151424;28;20128;-60
2022/01/20 09:01:46;;;;;;;7.03;1.73;;;26.40;56.30;;;;;;4156203;28;20933;-60
2022/01/20 09:04:09;;;;;;;9.98;2.20;;;26.40;56.40;;;;;;4160672;28;20099;-61
2022/01/20 09:06:32;;;;;;;8.82;2.22;;;26.40;56.40;;;;;;4157458;28;20399;-60
2022/01/20 09:08:55;;;;;;;6.57;2.05;;;26.40;56.40;;;;;;4154732;28;20041;-58
2022/01/20 09:11:30;;;;;;;6.93;2.13;;;26.40;56.40;;;;;;4153538;28;20037;-61
2022/01/20 09:16:34;;;;;;;5.05;1.85;;;26.40;56.50;;;;;;4160114;28;20033;-59
2022/01/20 09:18:57;;;;;;;5.37;1.53;;;26.40;56.70;;;;;;4161773;28;20037;-62
2022/01/20 09:21:22;;;;;;;5.97;2.07;;;26.40;56.90;;;;;;4160328;28;20128;-61
2022/01/20 09:23:45;;;;;;;4.15;1.77;;;26.40;56.90;;;;;;4157686;28;20338;-61
2022/01/20 09:26:08;;;;;;;7.50;1.85;;;26.40;57.50;;;;;;4154190;28;20037;-57
2022/01/20 09:28:31;;;;;;;7.35;2.13;;;26.40;56.70;;;;;;4156434;28;20037;-59
2022/01/20 09:30:58;;;;;;;5.80;2.20;;;26.40;56.70;;;;;;4156891;28;20038;-59
2022/01/20 09:33:27;;;;;;;7.50;1.98;;;26.40;56.60;;;;;;4155004;28;20041;-58
2022/01/20 09:35:50;;;;;;;7.07;2.92;;;26.40;56.70;;;;;;4156179;28;20045;-57
2022/01/20 09:38:14;;;;;;;9.23;2.10;;;26.30;57.00;;;;;;4157853;28;20037;-58
2022/01/20 09:40:37;;;;;;;;;;;26.30;57.10;;;;;;4165549;28;20913;-59
2022/01/20 09:43:01;;;;;;;6.80;1.80;;;26.30;56.80;;;;;;4167647;28;19955;-57
2022/01/20 09:45:26;;;;;;;5.18;2.05;;;26.30;57.00;;;;;;4160176;28;20124;-58
2022/01/20 09:47:49;;;;;;;6.50;1.98;;;26.30;57.00;;;;;;4161891;28;20029;-58
2022/01/20 09:50:13;;;;;;;;;;;26.30;56.90;;;;;;4157054;28;20069;-58
2022/01/20 09:52:37;;;;;;;5.10;1.55;;;26.30;57.10;;;;;;4163178;28;19944;-57
2022/01/20 09:55:00;;;;;;;7.85;2.17;;;26.30;57.00;;;;;;4161729;28;20034;-56
2022/01/20 09:57:24;;;;;;;8.05;2.38;;;26.20;57.00;;;;;;4159007;28;20033;-60
2022/01/20 09:59:50;;;;;;;9.27;2.10;;;26.20;56.90;;;;;;4153924;28;21090;-58
2022/01/20 10:02:18;;;;;;;6.53;1.73;;;26.20;57.20;;;;;;4148916;28;20112;-60
2022/01/20 10:04:41;;;;;;;8.95;2.28;;;26.20;57.10;;;;;;4159019;28;20502;-58
2022/01/20 10:07:09;;;;;;;6.38;1.90;;;26.20;57.30;;;;;;4159139;28;20045;-58
2022/01/20 10:09:39;;;;;;;4.50;1.55;;;26.20;57.30;;;;;;4160426;28;20211;-60
2022/01/20 10:12:03;;;;;;;8.75;1.95;;;26.20;57.30;;;;;;4158977;28;20438;-58
2022/01/20 10:14:26;;;;;;;4.25;1.50;;;26.20;57.30;;;;;;4156049;28;20044;-58
2022/01/20 10:16:48;;;;;;;7.18;1.90;;;26.20;57.40;;;;;;4145880;28;20041;-55
2022/01/20 10:19:21;;;;;;;5.97;2.00;;;26.20;57.00;;;;;;4158682;28;20049;-59
2022/01/20 10:21:44;;;;;;;6.03;1.98;;;26.20;58.00;;;;;;4158407;28;20032;-58
2022/01/20 10:24:11;;;;;;;5.50;2.10;;;26.10;57.20;;;;;;4159333;28;20056;-58
2022/01/20 10:26:34;;;;;;;4.32;1.45;;;26.10;57.20;;;;;;4154172;28;20037;-57
2022/01/20 10:29:16;;;;;;;6.53;2.07;;;26.20;57.30;;;;;;4159312;28;20052;-54
2022/01/20 10:31:46;;;;;;;6.50;2.15;;;26.10;57.30;;;;;;4164392;28;20044;-51
2022/01/20 10:34:31;;;;;;;7.13;2.20;;;26.10;57.30;;;;;;4152624;28;20060;-56
2022/01/20 10:36:55;;;;;;;5.60;2.13;;;26.10;57.20;;;;;;4155039;28;20043;-57
2022/01/20 10:39:19;;;;;;;5.28;1.70;;;26.10;57.50;;;;;;4155233;28;20128;-59
2022/01/20 10:41:42;;;;;;;8.00;2.42;;;26.10;57.40;;;;;;4160442;28;20120;-58
2022/01/20 10:44:16;;;;;;;6.32;2.22;;;26.10;57.30;;;;;;4160935;28;20033;-59
2022/01/20 10:46:48;;;;;;;;;;;26.10;57.30;;;;;;4158137;28;20912;-58
2022/01/20 10:49:11;;;;;;;5.43;2.00;;;26.10;57.40;;;;;;4156001;28;19917;-59
2022/01/20 10:51:34;;;;;;;6.05;2.38;;;26.10;57.40;;;;;;4157013;28;20037;-59
2022/01/20 10:54:07;;;;;;;11.00;2.47;;;26.10;57.30;;;;;;4162115;28;20136;-59
2022/01/20 10:56:30;;;;;;;7.82;1.98;;;26.10;57.40;;;;;;4159986;28;20102;-59
2022/01/20 10:59:07;;;;;;;5.57;1.60;;;26.10;57.40;;;;;;4146700;28;20049;-60
2022/01/20 11:01:30;;;;;;;7.43;2.22;;;26.10;57.40;;;;;;4129274;28;20299;-60
2022/01/20 11:03:54;;;;;;;7.73;2.20;;;26.10;57.30;;;;;;4126476;28;20621;-59
2022/01/20 11:06:16;;;;;;;;;;;26.10;57.30;;;;;;4134548;28;20057;-60
2022/01/20 11:08:42;;;;;;;7.70;2.13;;;26.00;57.30;;;;;;4132223;28;19914;-60
2022/01/20 11:11:05;;;;;;;4.53;2.08;;;26.00;57.40;;;;;;4127518;28;20069;-60
2022/01/20 11:13:29;;;;;;;5.70;1.73;;;26.00;57.50;;;;;;4136257;28;20056;-56
2022/01/20 11:15:52;;;;;;;6.45;2.35;;;26.00;57.60;;;;;;4129203;28;20113;-58
2022/01/20 11:18:15;;;;;;;5.18;2.22;;;26.00;57.80;;;;;;4134427;28;20091;-60
2022/01/20 11:20:46;;;;;;;7.07;2.38;;;26.00;57.80;;;;;;4136249;28;20034;-58
2022/01/20 11:23:09;;;;;;;5.72;1.77;;;26.00;57.50;;;;;;4136295;28;20069;-59
2022/01/20 11:25:37;;;;;;;7.65;2.10;;;26.00;57.60;;;;;;4136386;28;20557;-59
2022/01/20 11:28:25;;;;;;;5.45;2.13;;;26.00;57.60;;;;;;4140611;28;20034;-59
2022/01/20 11:31:14;;;;;;;8.23;1.92;;;26.00;57.60;;;;;;4142484;28;20048;-62
2022/01/20 11:33:41;;;;;;;5.72;2.15;;;26.00;57.50;;;;;;4141684;28;20050;-63
2022/01/20 11:36:06;;;;;;;5.47;2.10;;;26.00;57.60;;;;;;4139593;28;20026;-63
2022/01/20 11:38:47;;;;;;;7.40;2.08;;;26.00;57.70;;;;;;4135296;28;20119;-60
2022/01/20 11:41:13;;;;;;;5.68;2.00;;;26.00;57.50;;;;;;4137864;28;20041;-59
2022/01/20 11:43:48;;;;;;;6.15;1.80;;;26.00;57.40;;;;;;4138486;28;20069;-61
2022/01/20 11:46:19;;;;;;;7.30;1.95;;;25.90;57.40;;;;;;4137151;28;20037;-60
2022/01/20 11:48:59;;;;;;;5.20;1.95;;;25.90;57.60;;;;;;4142694;28;20045;-61
2022/01/20 11:51:28;;;;;;;6.35;2.10;;;25.90;57.70;;;;;;4138964;28;20403;-61
2022/01/20 11:54:00;;;;;;;5.85;1.67;;;25.90;57.60;;;;;;4138949;28;20139;-59
2022/01/20 11:56:33;;;;;;;3.28;1.45;;;25.90;57.70;;;;;;4136472;28;20069;-56
2022/01/20 11:58:56;;;;;;;9.23;2.10;;;25.80;57.60;;;;;;4144194;28;20056;-57
2022/01/20 12:01:20;;;;;;;4.78;1.80;;;25.80;57.50;;;;;;4155929;28;20065;-56
2022/01/20 12:03:52;;;;;;;5.50;1.77;;;25.80;57.60;;;;;;4158270;28;20093;-58
2022/01/20 12:06:22;;;;;;;5.00;1.85;;;25.80;57.80;;;;;;4159152;28;20652;-57
2022/01/20 12:09:01;;;;;;;6.90;2.35;;;25.80;57.90;;;;;;4158160;28;20029;-57
2022/01/20 12:11:39;;;;;;;6.85;2.40;;;25.80;57.70;;;;;;4154201;28;20033;-59
2022/01/20 12:14:03;;;;;;;5.57;1.70;;;25.80;58.10;;;;;;4158812;28;20119;-59
2022/01/20 12:16:28;;;;;;;4.63;1.70;;;25.80;58.00;;;;;;4150505;28;20053;-59
2022/01/20 12:18:55;;;;;;;6.82;1.60;;;25.80;57.90;;;;;;4158763;28;20071;-58
2022/01/20 12:21:19;;;;;;;4.45;1.52;;;25.70;58.10;;;;;;4157683;28;20049;-58
2022/01/20 12:23:42;;;;;;;;;;;25.70;57.90;;;;;;4158590;28;20113;-58
2022/01/20 12:26:09;;;;;;;5.07;1.95;;;25.70;58.90;;;;;;4156398;28;19919;-57
2022/01/20 12:28:33;;;;;;;5.18;1.88;;;25.70;58.20;;;;;;4158500;28;20037;-54
2022/01/20 12:31:02;;;;;;;5.65;1.70;;;25.70;58.00;;;;;;4157396;28;20515;-57
2022/01/20 12:33:27;;;;;;;3.75;1.25;;;25.70;59.20;;;;;;4145754;28;20040;-58
2022/01/20 12:35:54;;;;;;;3.90;1.58;;;25.70;58.20;;;;;;4156456;28;20036;-59
2022/01/20 12:38:26;;;;;;;5.43;1.77;;;25.60;58.10;;;;;;4157467;28;20473;-59
2022/01/20 12:41:04;;;;;;;7.20;1.52;;;25.60;58.50;;;;;;4157593;28;20033;-60
2022/01/20 12:43:50;;;;;;;3.38;1.33;;;25.60;58.10;;;;;;4162161;28;20091;-58
2022/01/20 12:46:28;;;;;;;7.30;1.75;;;25.60;59.00;;;;;;4158381;28;20041;-59
2022/01/20 12:49:08;;;;;;;5.20;1.48;;;25.60;58.50;;;;;;4157725;28;20053;-59
2022/01/20 12:51:43;;;;;;;6.75;1.45;;;25.60;58.60;;;;;;4156572;28;20042;-58
2022/01/20 12:54:12;;;;;;;3.78;1.30;;;25.60;58.60;;;;;;4158861;28;20577;-54
2022/01/20 12:56:41;;;;;;;7.07;2.00;;;25.60;58.60;;;;;;4157530;28;20049;-58
2022/01/20 12:59:06;;;;;;;5.10;1.30;;;25.60;58.10;;;;;;4157370;28;20057;-59
2022/01/20 13:01:50;;;;;;;3.78;1.33;;;25.50;58.40;;;;;;4157780;28;20043;-60
2022/01/20 13:04:16;;;;;;;6.95;1.63;;;25.50;58.60;;;;;;4157537;28;20196;-57
2022/01/20 13:06:47;;;;;;;9.20;1.80;;;25.50;58.60;;;;;;4157265;28;20048;-57
2022/01/20 13:09:12;;;;;;;5.70;1.60;;;25.50;58.60;;;;;;4155946;28;20114;-57
2022/01/20 13:11:41;;;;;;;7.22;1.90;;;25.50;58.70;;;;;;4160292;28;20033;-59
2022/01/20 13:14:05;;;;;;;6.53;1.88;;;25.40;58.30;;;;;;4160270;28;20129;-60
2022/01/20 13:16:31;;;;;;;4.53;1.75;;;25.40;58.40;;;;;;4161964;28;20977;-59
2022/01/20 13:19:00;;;;;;;4.38;1.80;;;25.40;58.60;;;;;;4156257;28;20065;-60
2022/01/20 13:21:39;;;;;;;8.73;2.05;;;25.40;58.60;;;;;;4156268;28;20084;-58
2022/01/20 13:24:06;;;;;;;5.63;1.58;;;25.40;58.80;;;;;;4158108;28;20107;-58
2022/01/20 13:26:31;;;;;;;6.03;1.63;;;25.40;59.00;;;;;;4160125;28;20096;-58
2022/01/20 13:29:05;;;;;;;4.50;1.50;;;25.40;58.90;;;;;;4149430;28;20045;-58
2022/01/20 13:31:28;;;;;;;7.50;2.10;;;25.40;59.20;;;;;;4137625;28;20136;-58
2022/01/20 13:33:52;;;;;;;5.65;1.70;;;25.30;59.00;;;;;;4156256;28;20053;-59
2022/01/20 13:36:18;;;;;;;4.68;1.35;;;25.30;58.90;;;;;;4157605;28;20175;-59